createdAt,value
2018-08-09T00:00:06.703Z,3.13
2018-08-09T00:02:35.595Z,3.33
2018-08-09T00:05:05.083Z,3.70
2018-08-09T00:07:33.967Z,3.20
2018-08-09T00:10:02.928Z,3.30
2018-08-09T00:12:31.926Z,3.50
2018-08-09T00:15:00.827Z,3.93
2018-08-09T00:17:30.275Z,3.87
2018-08-09T00:19:59.246Z,3.73
2018-08-09T00:22:28.147Z,3.40
2018-08-09T00:24:57.144Z,3.23
2018-08-09T00:27:26.019Z,3.27
2018-08-09T00:29:54.983Z,3.37
2018-08-09T00:32:23.871Z,3.20
2018-08-09T00:34:52.779Z,2.90
2018-08-09T00:37:21.785Z,3.27
2018-08-09T00:39:50.694Z,3.20
2018-08-09T00:42:19.727Z,3.53
2018-08-09T00:44:48.925Z,3.30
2018-08-09T00:47:17.843Z,4.27
2018-08-09T00:49:46.739Z,3.63
2018-08-09T00:52:15.726Z,4.03
2018-08-09T00:54:44.603Z,3.80
2018-08-09T00:57:13.535Z,4.47
2018-08-09T00:59:42.426Z,4.27
2018-08-09T01:02:12.028Z,4.63
2018-08-09T01:04:40.947Z,4.40
2018-08-09T01:07:09.875Z,4.30
2018-08-09T01:09:38.934Z,4.40
2018-08-09T01:12:07.879Z,4.20
2018-08-09T01:14:36.824Z,4.23
2018-08-09T01:17:05.808Z,3.97
2018-08-09T01:19:34.825Z,4.07
2018-08-09T01:22:03.846Z,4.20
2018-08-09T01:24:32.767Z,4.20
2018-08-09T01:27:01.767Z,5.00
2018-08-09T01:29:30.782Z,4.37
2018-08-09T01:31:59.649Z,4.53
2018-08-09T01:34:28.539Z,4.27
2018-08-09T01:36:57.463Z,3.70
2018-08-09T01:39:31.867Z,4.50
2018-08-09T01:42:12.273Z,4.27
2018-08-09T01:44:41.215Z,3.87
2018-08-09T01:47:10.199Z,4.37
2018-08-09T01:49:39.104Z,4.77
2018-08-09T01:52:08.021Z,4.40
2018-08-09T01:54:36.957Z,3.90
2018-08-09T01:57:05.861Z,4.53
2018-08-09T01:59:34.825Z,4.17
2018-08-09T02:02:03.819Z,4.47
2018-08-09T02:04:32.737Z,4.50
2018-08-09T02:07:07.344Z,4.57
2018-08-09T02:09:41.720Z,5.33
2018-08-09T02:12:10.639Z,4.70
2018-08-09T02:14:39.558Z,4.87
2018-08-09T02:17:08.495Z,5.13
2018-08-09T02:19:37.459Z,5.10
2018-08-09T02:22:06.427Z,4.57
2018-08-09T02:24:35.373Z,4.77
2018-08-09T02:27:04.342Z,4.40
2018-08-09T02:29:33.263Z,5.20
2018-08-09T02:32:02.246Z,5.03
2018-08-09T02:34:31.200Z,5.00
2018-08-09T02:37:00.083Z,5.23
2018-08-09T02:39:28.999Z,5.30
2018-08-09T02:41:57.912Z,4.93
2018-08-09T02:44:26.860Z,5.67
2018-08-09T02:46:55.784Z,5.23
2018-08-09T02:49:24.740Z,5.33
2018-08-09T02:51:53.616Z,5.23
2018-08-09T02:54:22.533Z,5.13
2018-08-09T02:56:51.466Z,5.20
2018-08-09T02:59:20.384Z,5.57
2018-08-09T03:01:55.916Z,5.40
2018-08-09T03:04:24.916Z,5.13
2018-08-09T03:06:53.820Z,4.70
2018-08-09T03:09:22.751Z,5.10
2018-08-09T03:11:51.682Z,4.80
2018-08-09T03:14:20.589Z,4.53
2018-08-09T03:16:49.515Z,4.67
2018-08-09T03:19:18.447Z,4.80
2018-08-09T03:21:47.347Z,4.67
2018-08-09T03:24:16.499Z,5.00
2018-08-09T03:26:45.340Z,4.40
2018-08-09T03:29:14.232Z,4.63
2018-08-09T03:31:43.119Z,4.47
2018-08-09T03:34:12.011Z,4.80
2018-08-09T03:36:43.849Z,4.50
2018-08-09T03:39:13.271Z,4.00
2018-08-09T03:41:42.181Z,5.07
2018-08-09T03:44:11.111Z,4.47
2018-08-09T03:46:40.055Z,4.60
2018-08-09T03:49:09.023Z,5.17
2018-08-09T03:51:37.952Z,5.23
2018-08-09T03:54:06.897Z,4.83
2018-08-09T03:56:35.797Z,5.10
2018-08-09T03:59:04.679Z,5.00
2018-08-09T04:01:33.660Z,5.27
2018-08-09T04:04:02.575Z,4.67
2018-08-09T04:06:31.492Z,4.83
2018-08-09T04:09:01.205Z,4.87
2018-08-09T04:11:30.125Z,5.43
2018-08-09T04:13:59.121Z,4.70
2018-08-09T04:16:28.014Z,5.43
2018-08-09T04:18:56.957Z,5.03
2018-08-09T04:21:25.916Z,5.80
2018-08-09T04:23:54.821Z,5.60
2018-08-09T04:26:23.727Z,5.80
2018-08-09T04:28:52.651Z,6.57
2018-08-09T04:31:21.580Z,7.03
2018-08-09T04:33:51.179Z,6.60
2018-08-09T04:36:20.157Z,7.33
2018-08-09T04:38:49.083Z,7.00
2018-08-09T04:41:18.052Z,7.27
2018-08-09T04:43:46.965Z,7.07
2018-08-09T04:46:15.946Z,6.77
2018-08-09T04:48:50.468Z,6.83
2018-08-09T04:51:19.404Z,7.57
2018-08-09T04:53:48.319Z,7.00
2018-08-09T04:56:17.241Z,7.33
2018-08-09T04:58:46.172Z,7.20
2018-08-09T05:01:15.054Z,7.17
2018-08-09T05:03:43.980Z,6.90
2018-08-09T05:06:14.702Z,7.67
2018-08-09T05:08:43.585Z,7.77
2018-08-09T05:11:12.542Z,7.40
2018-08-09T05:13:41.467Z,7.00
2018-08-09T05:16:10.411Z,7.73
2018-08-09T05:18:39.387Z,8.03
2018-08-09T05:21:08.775Z,7.30
2018-08-09T05:23:37.720Z,8.40
2018-08-09T05:26:06.972Z,8.23
2018-08-09T05:28:36.947Z,7.53
2018-08-09T05:31:05.920Z,8.17
2018-08-09T05:33:34.927Z,8.10
2018-08-09T05:36:03.914Z,9.27
2018-08-09T05:38:32.956Z,8.83
2018-08-09T05:41:01.883Z,8.00
2018-08-09T05:43:30.847Z,8.77
2018-08-09T05:45:59.767Z,8.30
2018-08-09T05:48:28.808Z,9.23
2018-08-09T05:50:57.840Z,8.60
2018-08-09T05:53:26.742Z,8.80
2018-08-09T05:55:55.689Z,8.87
2018-08-09T05:58:24.659Z,9.17
2018-08-09T06:00:53.700Z,9.30
2018-08-09T06:03:22.676Z,8.53
2018-08-09T06:05:51.663Z,8.67
2018-08-09T06:08:20.572Z,8.77
2018-08-09T06:10:49.553Z,8.97
2018-08-09T06:13:18.479Z,9.20
2018-08-09T06:15:47.445Z,9.33
2018-08-09T06:18:16.383Z,9.20
2018-08-09T06:20:45.339Z,8.67
2018-08-09T06:23:14.406Z,8.37
2018-08-09T06:25:43.364Z,9.20
2018-08-09T06:28:12.404Z,8.60
2018-08-09T06:30:41.360Z,9.50
2018-08-09T06:33:10.296Z,8.83
2018-08-09T06:35:39.752Z,9.37
2018-08-09T06:38:08.697Z,9.07
2018-08-09T06:40:37.715Z,8.57
2018-08-09T06:43:06.695Z,9.77
2018-08-09T06:45:35.617Z,9.60
2018-08-09T06:48:04.597Z,9.10
2018-08-09T06:50:33.504Z,10.43
2018-08-09T06:53:02.489Z,11.27
2018-08-09T06:55:31.407Z,10.37
2018-08-09T06:58:00.324Z,9.90
2018-08-09T07:00:43.033Z,9.70
2018-08-09T07:03:11.962Z,9.63
2018-08-09T07:05:40.877Z,8.83
2018-08-09T07:08:09.875Z,8.77
2018-08-09T07:10:38.872Z,8.43
2018-08-09T07:13:07.836Z,8.23
2018-08-09T07:15:36.897Z,8.77
2018-08-09T07:18:06.096Z,8.67
2018-08-09T07:20:35.135Z,9.10
2018-08-09T07:23:04.254Z,8.33
2018-08-09T07:25:33.416Z,9.40
2018-08-09T07:28:02.983Z,9.53
2018-08-09T07:30:32.207Z,9.77
2018-08-09T07:33:01.258Z,9.90
2018-08-09T07:35:30.238Z,9.73
2018-08-09T07:37:59.487Z,10.87
2018-08-09T07:40:28.543Z,9.97
2018-08-09T07:42:57.679Z,10.93
2018-08-09T07:45:26.628Z,12.40
2018-08-09T07:47:55.628Z,11.70
2018-08-09T07:50:24.651Z,10.17
2018-08-09T07:52:53.602Z,11.13
2018-08-09T07:55:22.598Z,11.17
2018-08-09T07:57:52.660Z,11.93
2018-08-09T08:00:21.608Z,11.23
2018-08-09T08:02:50.634Z,11.87
2018-08-09T08:05:19.696Z,12.73
2018-08-09T08:07:48.847Z,12.43
2018-08-09T08:10:17.847Z,12.40
2018-08-09T08:12:46.896Z,11.57
2018-08-09T08:15:16.008Z,11.10
2018-08-09T08:17:45.048Z,11.30
2018-08-09T08:20:14.064Z,11.33
2018-08-09T08:22:43.006Z,11.97
2018-08-09T08:25:11.972Z,11.77
2018-08-09T08:27:40.960Z,12.33
2018-08-09T08:30:12.089Z,11.47
2018-08-09T08:32:41.846Z,12.30
2018-08-09T08:35:11.181Z,13.00
2018-08-09T08:37:40.832Z,12.63
2018-08-09T08:40:10.492Z,13.30
2018-08-09T08:42:39.607Z,11.77
2018-08-09T08:45:11.348Z,11.10
2018-08-09T08:47:40.453Z,11.90
2018-08-09T08:50:09.612Z,11.17
2018-08-09T08:52:39.666Z,11.43
2018-08-09T08:55:10.248Z,10.83
2018-08-09T08:57:39.442Z,9.97
2018-08-09T09:00:10.502Z,10.23
2018-08-09T09:02:40.414Z,10.53
2018-08-09T09:05:11.552Z,11.20
2018-08-09T09:07:46.019Z,12.00
2018-08-09T09:10:20.475Z,12.70
2018-08-09T09:12:49.439Z,12.27
2018-08-09T09:15:18.430Z,12.40
2018-08-09T09:17:47.439Z,12.47
2018-08-09T09:20:18.020Z,11.97
2018-08-09T09:22:46.971Z,11.83
2018-08-09T09:25:15.974Z,11.17
2018-08-09T09:27:45.015Z,11.23
2018-08-09T09:30:16.487Z,10.50
2018-08-09T09:32:45.955Z,11.20
2018-08-09T09:35:14.950Z,9.57
2018-08-09T09:37:49.551Z,10.10
2018-08-09T09:40:24.071Z,10.73
2018-08-09T09:42:53.020Z,9.60
2018-08-09T09:45:22.123Z,8.17
2018-08-09T09:47:51.136Z,8.90
2018-08-09T09:50:20.048Z,8.57
2018-08-09T09:52:51.137Z,8.23
2018-08-09T09:55:20.072Z,8.33
2018-08-09T09:57:49.042Z,8.30
2018-08-09T10:00:23.355Z,13.77
2018-08-09T10:02:52.399Z,9.50
2018-08-09T10:05:21.310Z,9.10
2018-08-09T10:07:50.364Z,8.47
2018-08-09T10:10:19.662Z,7.20
2018-08-09T10:12:48.698Z,7.30
2018-08-09T10:15:17.718Z,6.60
2018-08-09T10:17:46.749Z,7.13
2018-08-09T10:20:15.744Z,6.27
2018-08-09T10:22:44.742Z,7.03
2018-08-09T10:25:13.695Z,6.80
2018-08-09T10:27:42.682Z,6.93
2018-08-09T10:30:11.607Z,6.37
2018-08-09T10:32:40.530Z,7.57
2018-08-09T10:35:09.661Z,7.40
2018-08-09T10:37:38.903Z,6.87
2018-08-09T10:40:07.905Z,7.43
2018-08-09T10:42:36.953Z,7.40
2018-08-09T10:45:06.023Z,7.20
2018-08-09T10:47:35.160Z,7.40
2018-08-09T10:50:04.242Z,7.20
2018-08-09T10:52:33.347Z,7.67
2018-08-09T10:55:02.251Z,7.57
2018-08-09T10:57:31.185Z,8.00
2018-08-09T11:00:00.194Z,8.13
2018-08-09T11:02:29.190Z,7.33
2018-08-09T11:04:58.113Z,7.53
2018-08-09T11:07:27.043Z,7.67
2018-08-09T11:09:58.048Z,8.20
2018-08-09T11:12:27.030Z,7.63
2018-08-09T11:14:56.024Z,7.93
2018-08-09T11:17:24.915Z,7.53
2018-08-09T11:19:53.939Z,7.57
2018-08-09T11:22:22.863Z,7.07
2018-08-09T11:24:51.789Z,7.90
2018-08-09T11:27:20.807Z,7.23
2018-08-09T11:29:49.829Z,7.50
2018-08-09T11:32:18.743Z,7.63
2018-08-09T11:34:47.781Z,7.80
2018-08-09T11:37:22.321Z,6.93
2018-08-09T11:39:56.683Z,7.57
2018-08-09T11:42:25.617Z,7.63
2018-08-09T11:44:54.525Z,7.87
2018-08-09T11:47:29.133Z,7.57
2018-08-09T11:49:58.202Z,7.77
2018-08-09T11:52:27.117Z,8.33
2018-08-09T11:54:56.031Z,8.03
2018-08-09T11:57:24.943Z,7.53
2018-08-09T11:59:53.867Z,7.30
2018-08-09T12:02:22.797Z,8.83
2018-08-09T12:04:51.767Z,7.87
2018-08-09T12:07:20.812Z,8.03
2018-08-09T12:10:52.761Z,8.87
2018-08-09T12:13:21.753Z,8.87
2018-08-09T12:15:50.803Z,9.00
2018-08-09T12:18:20.233Z,10.17
2018-08-09T12:20:49.190Z,10.37
2018-08-09T12:23:18.142Z,11.03
2018-08-09T12:25:47.186Z,11.17
2018-08-09T12:28:16.246Z,11.57
2018-08-09T12:30:45.176Z,12.60
2018-08-09T12:33:14.260Z,12.17
2018-08-09T12:35:43.198Z,13.07
2018-08-09T12:38:12.080Z,13.40
2018-08-09T12:40:41.091Z,12.37
2018-08-09T12:43:10.792Z,13.43
2018-08-09T12:45:39.969Z,13.03
2018-08-09T12:48:08.963Z,13.73
2018-08-09T12:50:37.999Z,13.70
2018-08-09T12:53:06.927Z,12.53
2018-08-09T12:55:35.880Z,13.43
2018-08-09T12:58:10.346Z,12.03
2018-08-09T13:00:44.869Z,11.57
2018-08-09T13:03:13.840Z,13.03
2018-08-09T13:05:42.902Z,12.83
2018-08-09T13:08:11.953Z,12.00
2018-08-09T13:10:41.014Z,12.23
2018-08-09T13:13:10.047Z,12.53
2018-08-09T13:15:39.009Z,11.90
2018-08-09T13:18:08.247Z,12.23
2018-08-09T13:20:37.181Z,13.00
2018-08-09T13:23:06.120Z,13.60
2018-08-09T13:25:35.157Z,12.73
2018-08-09T13:28:04.127Z,13.53
2018-08-09T13:30:33.117Z,12.90
2018-08-09T13:33:02.202Z,13.27
2018-08-09T13:35:31.427Z,12.73
2018-08-09T13:38:00.398Z,13.83
2018-08-09T13:40:29.424Z,14.03
2018-08-09T13:42:58.478Z,12.00
2018-08-09T13:45:27.516Z,13.07
2018-08-09T13:47:56.457Z,13.97
2018-08-09T13:50:25.423Z,12.10
2018-08-09T13:52:54.311Z,13.77
2018-08-09T13:55:23.269Z,12.57
2018-08-09T13:57:52.327Z,13.43
2018-08-09T14:00:21.288Z,12.47
2018-08-09T14:02:50.235Z,12.73
2018-08-09T14:05:19.239Z,12.47
2018-08-09T14:07:48.170Z,12.70
2018-08-09T14:10:22.673Z,13.57
2018-08-09T14:12:51.558Z,13.00
2018-08-09T14:15:20.505Z,13.40
2018-08-09T14:17:49.688Z,12.93
2018-08-09T14:20:18.881Z,13.53
2018-08-09T14:22:47.865Z,13.70
2018-08-09T14:25:16.888Z,12.60
2018-08-09T14:27:45.849Z,13.83
2018-08-09T14:30:18.018Z,13.73
2018-08-09T14:32:46.959Z,13.20
2018-08-09T14:35:19.424Z,14.17
2018-08-09T14:37:48.505Z,13.30
2018-08-09T14:40:17.427Z,14.43
2018-08-09T14:42:49.791Z,13.87
2018-08-09T14:45:18.797Z,13.93
2018-08-09T14:47:48.926Z,14.63
2018-08-09T14:50:17.807Z,14.50
2018-08-09T14:52:46.763Z,14.37
2018-08-09T14:55:15.672Z,15.13
2018-08-09T14:57:44.680Z,14.80
2018-08-09T15:00:16.492Z,15.07
2018-08-09T15:02:46.118Z,15.50
2018-08-09T15:05:16.678Z,15.67
2018-08-09T15:07:51.211Z,14.90
2018-08-09T15:10:21.268Z,14.20
2018-08-09T15:12:51.045Z,14.80
2018-08-09T15:15:20.139Z,15.33
2018-08-09T15:17:49.117Z,14.43
2018-08-09T15:20:19.363Z,15.53
2018-08-09T15:22:49.344Z,15.73
2018-08-09T15:25:18.916Z,15.87
2018-08-09T15:27:48.057Z,15.77
2018-08-09T15:30:18.291Z,15.63
2018-08-09T15:32:47.722Z,15.27
2018-08-09T15:35:17.685Z,16.33
2018-08-09T15:37:46.672Z,16.20
2018-08-09T15:40:16.174Z,16.03
2018-08-09T15:42:45.214Z,16.77
2018-08-09T15:45:15.293Z,18.07
2018-08-09T15:47:44.390Z,16.63
2018-08-09T15:50:16.302Z,18.50
2018-08-09T15:52:45.443Z,18.00
2018-08-09T15:55:19.896Z,17.83
2018-08-09T15:57:49.065Z,20.07
2018-08-09T16:00:20.294Z,19.97
2018-08-09T16:02:49.373Z,20.33
2018-08-09T16:05:18.686Z,20.63
2018-08-09T16:07:49.211Z,21.60
2018-08-09T16:10:18.856Z,21.53
2018-08-09T16:12:48.919Z,22.30
2018-08-09T16:15:20.508Z,22.00
2018-08-09T16:17:50.111Z,22.60
2018-08-09T16:20:19.102Z,21.67
2018-08-09T16:22:48.094Z,22.27
2018-08-09T16:25:19.124Z,23.50
2018-08-09T16:27:50.065Z,22.70
2018-08-09T16:30:23.181Z,24.17
2018-08-09T16:32:52.905Z,25.50
2018-08-09T16:35:22.245Z,25.10
2018-08-09T16:37:51.658Z,26.53
2018-08-09T16:40:23.006Z,26.83
2018-08-09T16:42:52.094Z,27.43
2018-08-09T16:45:22.152Z,27.33
2018-08-09T16:47:52.080Z,31.70
2018-08-09T16:50:23.123Z,31.87
2018-08-09T16:52:52.490Z,31.60
2018-08-09T16:55:22.733Z,33.00
2018-08-09T16:57:51.758Z,33.53
2018-08-09T17:00:22.314Z,34.17
2018-08-09T17:02:52.580Z,32.30
2018-08-09T17:08:06.321Z,38.13
2018-08-09T17:10:42.670Z,35.60
2018-08-09T17:13:14.850Z,35.30
2018-08-09T17:15:48.592Z,36.47
2018-08-09T17:18:36.160Z,37.97
2018-08-09T17:21:08.389Z,35.00
2018-08-09T17:26:38.116Z,30.33
2018-08-09T17:29:09.150Z,24.87
2018-08-09T17:31:38.738Z,23.23
2018-08-09T17:34:12.230Z,22.53
2018-08-09T17:36:42.178Z,22.37
2018-08-09T17:39:12.430Z,24.30
2018-08-09T17:41:41.559Z,14.37
2018-08-09T17:44:12.498Z,7.60
2018-08-09T17:46:42.101Z,4.33
2018-08-09T17:49:11.218Z,3.33
2018-08-09T17:51:40.181Z,2.80
2018-08-09T17:54:09.880Z,3.97
2018-08-09T17:56:38.894Z,3.53
2018-08-09T17:59:07.872Z,3.80
2018-08-09T18:01:37.056Z,3.33
2018-08-09T18:04:06.244Z,3.20
2018-08-09T18:06:35.435Z,3.20
2018-08-09T18:09:07.756Z,3.73
2018-08-09T18:11:36.804Z,4.20
2018-08-09T18:14:08.011Z,3.27
2018-08-09T18:16:37.918Z,3.20
2018-08-09T18:19:07.474Z,2.80
2018-08-09T18:21:36.681Z,3.00
2018-08-09T18:24:05.921Z,2.70
2018-08-09T18:26:34.954Z,3.63
2018-08-09T18:29:04.313Z,2.77
2018-08-09T18:31:33.756Z,3.57
2018-08-09T18:34:04.793Z,3.70
2018-08-09T18:36:33.914Z,3.70
2018-08-09T18:39:06.610Z,2.93
2018-08-09T18:41:39.150Z,3.60
2018-08-09T18:44:08.160Z,4.43
2018-08-09T18:46:37.211Z,3.90
2018-08-09T18:49:06.290Z,3.50
2018-08-09T18:51:35.336Z,4.13
2018-08-09T18:54:06.396Z,3.73
2018-08-09T18:56:35.384Z,3.70
2018-08-09T18:59:04.468Z,3.70
2018-08-09T19:01:33.612Z,3.67
2018-08-09T19:04:02.581Z,3.33
2018-08-09T19:06:31.543Z,2.93
2018-08-09T19:09:01.826Z,3.30
2018-08-09T19:11:30.735Z,3.40
2018-08-09T19:13:59.775Z,2.90
2018-08-09T19:16:28.768Z,3.40
2018-08-09T19:18:58.029Z,3.33
2018-08-09T19:21:27.104Z,3.17
2018-08-09T19:23:56.118Z,3.67
2018-08-09T19:26:28.933Z,3.70
2018-08-09T19:28:57.995Z,3.23
2018-08-09T19:31:26.965Z,3.67
2018-08-09T19:33:56.009Z,3.73
2018-08-09T19:36:25.875Z,2.73
2018-08-09T19:38:55.298Z,3.33
2018-08-09T19:41:24.336Z,3.47
2018-08-09T19:43:53.414Z,3.47
2018-08-09T19:46:22.480Z,3.33
2018-08-09T19:48:56.981Z,3.10
2018-08-09T19:51:30.204Z,3.00
2018-08-09T19:53:59.429Z,2.83
2018-08-09T19:56:28.718Z,2.43
2018-08-09T19:58:57.745Z,2.27
2018-08-09T20:01:26.744Z,2.27
2018-08-09T20:03:55.703Z,2.30
2018-08-09T20:06:25.375Z,2.17
2018-08-09T20:08:54.312Z,1.80
2018-08-09T20:11:23.410Z,2.20
2018-08-09T20:13:52.449Z,2.30
2018-08-09T20:16:21.466Z,1.90
2018-08-09T20:18:50.530Z,2.10
2018-08-09T20:21:19.472Z,1.57
2018-08-09T20:23:48.372Z,2.37
2018-08-09T20:26:17.292Z,2.20
2018-08-09T20:28:46.283Z,2.33
2018-08-09T20:31:15.229Z,2.07
2018-08-09T20:33:44.259Z,2.27
2018-08-09T20:36:13.170Z,2.80
2018-08-09T20:38:42.191Z,2.30
2018-08-09T20:41:11.199Z,2.40
2018-08-09T20:43:40.065Z,2.10
2018-08-09T20:46:09.027Z,1.67
2018-08-09T20:48:37.956Z,2.50
2018-08-09T20:51:07.325Z,2.53
2018-08-09T20:53:36.292Z,3.00
2018-08-09T20:56:06.225Z,2.90
2018-08-09T20:58:35.207Z,2.47
2018-08-09T21:01:04.211Z,2.90
2018-08-09T21:03:33.252Z,3.90
2018-08-09T21:06:02.336Z,2.83
2018-08-09T21:08:31.271Z,2.43
2018-08-09T21:11:00.204Z,2.63
2018-08-09T21:13:29.172Z,2.40
2018-08-09T21:15:58.210Z,2.03
2018-08-09T21:18:27.265Z,2.43
2018-08-09T21:20:56.290Z,2.20
2018-08-09T21:23:25.270Z,2.30
2018-08-09T21:25:54.229Z,2.20
2018-08-09T21:28:23.238Z,2.30
2018-08-09T21:30:52.256Z,2.43
2018-08-09T21:33:21.221Z,2.10
2018-08-09T21:35:50.199Z,2.00
2018-08-09T21:38:19.105Z,3.03
2018-08-09T21:40:48.124Z,2.67
2018-08-09T21:43:17.008Z,2.13
2018-08-09T21:45:45.942Z,2.17
2018-08-09T21:48:14.863Z,3.23
2018-08-09T21:50:43.866Z,2.60
2018-08-09T21:53:12.778Z,2.33
2018-08-09T21:55:41.751Z,2.63
2018-08-09T21:58:11.562Z,2.10
2018-08-09T22:00:51.078Z,1.90
2018-08-09T22:03:22.077Z,2.00
2018-08-09T22:05:56.357Z,2.20
2018-08-09T22:08:30.574Z,2.07
2018-08-09T22:11:04.703Z,2.03
2018-08-09T22:13:38.859Z,2.77
2018-08-09T22:16:13.152Z,1.97
2018-08-09T22:18:47.398Z,1.70
2018-08-09T22:21:21.647Z,2.10
2018-08-09T22:23:50.613Z,2.30
2018-08-09T22:26:19.562Z,1.93
2018-08-09T22:28:48.496Z,1.93
2018-08-09T22:31:17.499Z,2.00
2018-08-09T22:33:46.675Z,1.80
2018-08-09T22:36:15.709Z,1.90
2018-08-09T22:38:44.672Z,1.83
2018-08-09T22:41:13.561Z,1.83
2018-08-09T22:43:42.492Z,1.80
2018-08-09T22:46:11.431Z,1.50
2018-08-09T22:48:40.341Z,2.47
2018-08-09T22:51:09.410Z,1.93
2018-08-09T22:53:38.445Z,1.60
2018-08-09T22:56:07.361Z,1.77
2018-08-09T22:58:36.257Z,1.80
2018-08-09T23:01:05.576Z,1.80
2018-08-09T23:03:34.546Z,1.90
2018-08-09T23:06:03.678Z,2.00
2018-08-09T23:08:32.599Z,1.77
2018-08-09T23:11:01.536Z,2.03
2018-08-09T23:13:30.467Z,1.43
2018-08-09T23:15:59.464Z,1.80
2018-08-09T23:18:28.485Z,1.70
2018-08-09T23:20:57.396Z,1.40
2018-08-09T23:23:26.313Z,1.50
2018-08-09T23:25:55.223Z,1.40
2018-08-09T23:28:24.151Z,1.10
2018-08-09T23:30:53.172Z,1.53
2018-08-09T23:33:23.017Z,1.60
2018-08-09T23:35:52.005Z,1.43
2018-08-09T23:38:21.051Z,1.40
2018-08-09T23:40:50.140Z,1.30
2018-08-09T23:43:19.078Z,1.37
2018-08-09T23:45:48.020Z,1.77
2018-08-09T23:48:17.039Z,1.77
2018-08-09T23:50:45.932Z,1.60
2018-08-09T23:53:14.899Z,1.40
2018-08-09T23:55:43.948Z,1.43
2018-08-09T23:58:12.884Z,1.53
